Loading...
Charles de Gaulle Airport (Roissy Airport)

LFPG

Code AITA: CDG

Paris, Île-de-France, France

20.0°

Rosée: 13.0

Vitesse du vent

5 kt

Direction: 50° /

Altimètre

29.97 Hg

QNH : 1015

LFPG 191730Z 05005KT 9999 FEW020CB BKN140 BKN210 20/13 Q1015 NOSIG


Charles de Gaulle Airport (Roissy Airport)

Élévation

107.0 mètres

Ville

Roissy-en-France

Localisation

Île-de-France

Pays

France

Nouvelle recherche